Rockville, Indiana
Current Conditions -  °F | °C
As of 9:53 PM on Sunday 23 Nov 2014 (Local Time) from KHUF Reporting Station
Light Rain Light Rain  
Wind Chill: 52°   Ceiling: 1000
Heat Index: 52°   Visibility: 5mi
Dew Point: 51°   Wind: 6mph
Humidity: 97%   Direction: 140°SE
Pressure: 29.2"   Gusts: NA
Location:  39.76°N, 87.23°W
Report Text: KHUF 240253Z 14005KT 5SM -RA BR SCT005 BKN010 OVC017 11/11 A2920 RMK AO2 SLP886 P0014 60063 T01110106 56015 $
Loading
Personal Weather Stations






























Interactive Weather Map New forecast layout! Learn more

10-Day Weather Forecast

Advertisements
Track Severe Weather on mobile